Time;durP1;ratioP1;P1;durP2;ratioP2;P2;SDS_P1;SDS_P2;PMS_P1;PMS_P2;Temp;Humidity;BMP_temperature;BMP_pressure;BME280_temperature;BME280_humidity;BME280_pressure;Samples;Min_cycle;Max_cycle;Signal;HPM_P1;HPM_P2
2023/04/24 00:02:13;;;;;;;;;;;;;;;;;;5073008;28;20003;-67
2023/04/24 00:04:41;;;;;;;;;;;;;;;;;;5072450;28;20454;-68
2023/04/24 00:07:08;;;;;;;;;;;;;;;;;;5083779;28;19930;-68
2023/04/24 00:09:35;;;;;;;;;;;;;;;;;;5082800;28;19935;-68
2023/04/24 00:12:04;;;;;;;;;;;;;;;;;;5075576;28;19924;-68
2023/04/24 00:14:31;;;;;;;;;;;;;;;;;;5075123;28;19928;-68
2023/04/24 00:16:58;;;;;;;;;;;;;;;;;;5085664;28;19924;-67
2023/04/24 00:19:25;;;;;;;;;;;;;;;;;;5078732;28;19939;-67
2023/04/24 00:21:52;;;;;;;;;;;;;;;;;;5084272;28;19924;-68
2023/04/24 00:24:19;;;;;;;;;;;;;;;;;;5082770;28;19994;-67
2023/04/24 00:26:46;;;;;;;;;;;;;;;;;;5085664;28;19947;-68
2023/04/24 00:29:13;;;;;;;;;;;;;;;;;;5087593;28;19997;-68
2023/04/24 00:31:40;;;;;;;;;;;;;;;;;;5084001;28;20304;-68
2023/04/24 00:34:07;;;;;;;;;;;;;;;;;;5075196;28;20014;-68
2023/04/24 00:36:34;;;;;;;;;;;;;;;;;;5084927;28;19935;-68
2023/04/24 00:39:02;;;;;;;;;;;;;;;;;;5080316;28;20396;-68
2023/04/24 00:41:29;;;;;;;;;;;;;;;;;;5079539;28;19925;-69
2023/04/24 00:43:56;;;;;;;;;;;;;;;;;;5088600;28;19966;-68
2023/04/24 00:46:23;;;;;;;;;;;;;;;;;;5088255;28;19971;-68
2023/04/24 00:48:50;;;;;;;;;;;;;;;;;;5081982;28;20005;-67
2023/04/24 00:51:17;;;;;;;;;;;;;;;;;;5086550;28;19935;-67
2023/04/24 00:53:44;;;;;;;;;;;;;;;;;;5075379;28;19978;-68
2023/04/24 00:56:11;;;;;;;;;;;;;;;;;;5081445;28;19928;-67
2023/04/24 00:58:38;;;;;;;;;;;;;;;;;;5083823;28;19991;-68
2023/04/24 01:01:06;;;;;;;;;;;;;;;;;;5087451;28;19969;-68
2023/04/24 01:03:33;;;;;;;;;;;;;;;;;;5077484;28;20377;-68
2023/04/24 01:06:00;;;;;;;;;;;;;;;;;;5083141;28;19975;-68
2023/04/24 01:08:27;;;;;;;;;;;;;;;;;;5083240;28;19968;-68
2023/04/24 01:10:54;;;;;;;;;;;;;;;;;;5078529;28;19928;-68
2023/04/24 01:13:21;;;;;;;;;;;;;;;;;;5075783;28;19928;-68
2023/04/24 01:15:48;;;;;;;;;;;;;;;;;;5078805;28;19930;-68
2023/04/24 01:18:15;;;;;;;;;;;;;;;;;;5075230;28;19925;-70
2023/04/24 01:20:44;;;;;;;;;;;;;;;;;;5077456;28;20009;-68
2023/04/24 01:23:11;;;;;;;;;;;;;;;;;;5074826;28;20339;-68
2023/04/24 01:25:38;;;;;;;;;;;;;;;;;;5078723;28;19935;-68
2023/04/24 01:28:05;;;;;;;;;;;;;;;;;;5081856;28;20025;-68
2023/04/24 01:30:32;;;;;;;;;;;;;;;;;;5082344;28;20023;-68
2023/04/24 01:32:59;;;;;;;;;;;;;;;;;;5072805;28;19928;-68
2023/04/24 01:35:26;;;;;;;;;;;;;;;;;;5086242;28;19955;-68
2023/04/24 01:37:53;;;;;;;;;;;;;;;;;;5078100;28;19983;-68
2023/04/24 01:40:20;;;;;;;;;;;;;;;;;;5079765;28;19978;-68
2023/04/24 01:42:47;;;;;;;;;;;;;;;;;;5092133;28;19924;-68
2023/04/24 01:45:14;;;;;;;;;;;;;;;;;;5076191;28;20331;-68
2023/04/24 01:47:41;;;;;;;;;;;;;;;;;;5073998;28;19976;-68
2023/04/24 01:50:09;;;;;;;;;;;;;;;;;;5081239;28;19970;-68
2023/04/24 01:52:36;;;;;;;;;;;;;;;;;;5078687;28;19928;-68
2023/04/24 01:55:03;;;;;;;;;;;;;;;;;;5079961;28;19954;-68
2023/04/24 01:57:31;;;;;;;;;;;;;;;;;;5079891;28;19931;-69
2023/04/24 01:59:58;;;;;;;;;;;;;;;;;;5075926;28;19924;-68
2023/04/24 02:02:27;;;;;;;;;;;;;;;;;;5081232;28;19924;-68
2023/04/24 02:04:54;;;;;;;;;;;;;;;;;;5082038;28;20284;-68
2023/04/24 02:07:21;;;;;;;;;;;;;;;;;;5080700;28;19975;-68
2023/04/24 02:09:48;;;;;;;;;;;;;;;;;;5077672;28;20012;-68
2023/04/24 02:12:15;;;;;;;;;;;;;;;;;;5084397;28;19924;-68
2023/04/24 02:14:43;;;;;;;;;;;;;;;;;;5093222;28;20430;-68
2023/04/24 02:17:13;;;;;;;;;;;;;;;;;;5080968;28;19924;-68
2023/04/24 02:19:40;;;;;;;;;;;;;;;;;;5075491;28;19943;-68
2023/04/24 02:22:07;;;;;;;;;;;;;;;;;;5086306;28;19925;-68
2023/04/24 02:24:34;;;;;;;;;;;;;;;;;;5074331;28;20337;-68
2023/04/24 02:27:01;;;;;;;;;;;;;;;;;;5079841;28;19971;-68
2023/04/24 02:29:30;;;;;;;;;;;;;;;;;;5082542;28;20015;-68
2023/04/24 02:31:57;;;;;;;;;;;;;;;;;;5085535;28;19931;-68
2023/04/24 02:34:26;;;;;;;;;;;;;;;;;;5074478;28;20389;-68
2023/04/24 02:36:53;;;;;;;;;;;;;;;;;;5077597;28;19931;-68
2023/04/24 02:39:20;;;;;;;;;;;;;;;;;;5075170;28;19928;-68
2023/04/24 02:41:47;;;;;;;;;;;;;;;;;;5082592;28;20351;-68
2023/04/24 02:44:18;;;;;;;;;;;;;;;;;;5073623;28;19925;-68
2023/04/24 02:46:45;;;;;;;;;;;;;;;;;;5083225;28;20023;-67
2023/04/24 02:49:12;;;;;;;;;;;;;;;;;;5078807;28;19939;-67
2023/04/24 02:51:40;;;;;;;;;;;;;;;;;;5075480;28;20406;-67
2023/04/24 02:54:07;;;;;;;;;;;;;;;;;;5086678;28;20376;-67
2023/04/24 02:56:34;;;;;;;;;;;;;;;;;;5078285;28;19928;-68
2023/04/24 02:59:01;;;;;;;;;;;;;;;;;;5081438;28;20354;-68
2023/04/24 03:01:28;;;;;;;;;;;;;;;;;;5074288;28;19970;-68
2023/04/24 03:03:55;;;;;;;;;;;;;;;;;;5074102;28;19970;-68
2023/04/24 03:06:22;;;;;;;;;;;;;;;;;;5078805;28;19979;-67
2023/04/24 03:08:49;;;;;;;;;;;;;;;;;;5072210;28;19978;-67
2023/04/24 03:11:16;;;;;;;;;;;;;;;;;;5073724;28;19952;-67
2023/04/24 03:13:43;;;;;;;;;;;;;;;;;;5081040;28;19981;-68
2023/04/24 03:16:10;;;;;;;;;;;;;;;;;;5072855;28;20331;-68
2023/04/24 03:18:37;;;;;;;;;;;;;;;;;;5081867;28;19931;-68
2023/04/24 03:21:04;;;;;;;;;;;;;;;;;;5083828;28;19964;-68
2023/04/24 03:23:31;;;;;;;;;;;;;;;;;;5084576;28;19928;-69
2023/04/24 03:25:58;;;;;;;;;;;;;;;;;;5090652;28;19971;-68
2023/04/24 03:28:26;;;;;;;;;;;;;;;;;;5075983;28;20347;-68
2023/04/24 03:30:53;;;;;;;;;;;;;;;;;;5082795;28;20011;-68
2023/04/24 03:33:20;;;;;;;;;;;;;;;;;;5073872;28;19974;-68
2023/04/24 03:35:47;;;;;;;;;;;;;;;;;;5081371;28;19959;-68
2023/04/24 03:38:13;;;;;;;;;;;;;;;;;;5076172;28;19924;-68
2023/04/24 03:40:41;;;;;;;;;;;;;;;;;;5075681;28;19931;-68
2023/04/24 03:43:08;;;;;;;;;;;;;;;;;;5081189;28;20426;-68
2023/04/24 03:45:35;;;;;;;;;;;;;;;;;;5078305;28;19978;-68
2023/04/24 03:48:01;;;;;;;;;;;;;;;;;;5098055;28;19924;-68
2023/04/24 03:50:29;;;;;;;;;;;;;;;;;;5086327;28;20349;-69
2023/04/24 03:52:56;;;;;;;;;;;;;;;;;;5072642;28;19932;-68
2023/04/24 03:55:23;;;;;;;;;;;;;;;;;;5074558;28;19924;-68
2023/04/24 03:57:50;;;;;;;;;;;;;;;;;;5071904;28;19964;-68
2023/04/24 04:00:18;;;;;;;;;;;;;;;;;;5072467;28;19932;-68
2023/04/24 04:02:45;;;;;;;;;;;;;;;;;;5083148;28;19924;-68
2023/04/24 04:05:12;;;;;;;;;;;;;;;;;;5072514;28;19925;-68
2023/04/24 04:07:39;;;;;;;;;;;;;;;;;;5083273;28;19928;-68
2023/04/24 04:10:06;;;;;;;;;;;;;;;;;;5075738;28;20316;-68
2023/04/24 04:12:33;;;;;;;;;;;;;;;;;;5070985;28;19924;-68
2023/04/24 04:15:00;;;;;;;;;;;;;;;;;;5071292;28;19978;-68
2023/04/24 04:17:27;;;;;;;;;;;;;;;;;;5089775;28;20031;-67
2023/04/24 04:19:55;;;;;;;;;;;;;;;;;;5083661;28;19978;-67
2023/04/24 04:22:22;;;;;;;;;;;;;;;;;;5076019;28;19975;-68
2023/04/24 04:24:50;;;;;;;;;;;;;;;;;;5079715;28;19942;-68
2023/04/24 04:27:18;;;;;;;;;;;;;;;;;;5075725;28;19978;-68
2023/04/24 04:29:45;;;;;;;;;;;;;;;;;;5080768;28;19931;-68
2023/04/24 04:32:12;;;;;;;;;;;;;;;;;;5081308;28;20577;-68
2023/04/24 04:34:39;;;;;;;;;;;;;;;;;;5077960;28;19929;-68
2023/04/24 04:37:06;;;;;;;;;;;;;;;;;;5072708;28;20366;-68
2023/04/24 04:39:33;;;;;;;;;;;;;;;;;;5073636;28;19962;-68
2023/04/24 04:42:00;;;;;;;;;;;;;;;;;;5083723;28;19946;-69
2023/04/24 04:44:28;;;;;;;;;;;;;;;;;;5082384;28;19986;-68
2023/04/24 04:46:56;;;;;;;;;;;;;;;;;;5072289;28;19936;-68
2023/04/24 04:49:23;;;;;;;;;;;;;;;;;;5085383;28;19928;-68
2023/04/24 04:51:50;;;;;;;;;;;;;;;;;;5074646;28;19932;-68
2023/04/24 04:54:17;;;;;;;;;;;;;;;;;;5075799;28;19925;-68
2023/04/24 04:56:44;;;;;;;;;;;;;;;;;;5088908;28;20008;-68
2023/04/24 04:59:12;;;;;;;;;;;;;;;;;;5079044;28;19924;-68
2023/04/24 05:01:39;;;;;;;;;;;;;;;;;;5084517;28;19954;-68
2023/04/24 05:04:06;;;;;;;;;;;;;;;;;;5085160;28;19985;-67
2023/04/24 05:06:33;;;;;;;;;;;;;;;;;;5074319;28;19932;-68
2023/04/24 05:09:00;;;;;;;;;;;;;;;;;;5073465;28;19925;-68
2023/04/24 05:11:27;;;;;;;;;;;;;;;;;;5086949;28;20312;-68
2023/04/24 05:13:54;;;;;;;;;;;;;;;;;;5086745;28;19977;-68
2023/04/24 05:16:21;;;;;;;;;;;;;;;;;;5083273;28;20466;-69
2023/04/24 05:18:48;;;;;;;;;;;;;;;;;;5085384;28;19924;-68
2023/04/24 05:21:15;;;;;;;;;;;;;;;;;;5078699;28;19948;-69
2023/04/24 05:23:42;;;;;;;;;;;;;;;;;;5082000;28;19925;-68
2023/04/24 05:26:09;;;;;;;;;;;;;;;;;;5087587;28;19975;-69
2023/04/24 05:28:36;;;;;;;;;;;;;;;;;;5073254;28;19932;-69
2023/04/24 05:31:04;;;;;;;;;;;8.70;99.90;;;;;;5078365;28;19997;-68
2023/04/24 05:33:31;;;;;;;;;;;;;;;;;;5076644;28;20036;-68
2023/04/24 05:35:58;;;;;;;;;;;;;;;;;;5084791;28;19924;-69
2023/04/24 05:38:25;;;;;;;;;;;;;;;;;;5076197;28;19925;-69
2023/04/24 05:40:52;;;;;;;;;;;;;;;;;;5086111;28;20288;-69
2023/04/24 05:43:19;;;;;;;;;;;;;;;;;;5091958;28;19924;-68
2023/04/24 05:45:46;;;;;;;;;;;;;;;;;;5075191;28;19932;-69
2023/04/24 05:48:13;;;;;;;;;;;;;;;;;;5091264;28;19924;-69
2023/04/24 05:50:40;;;;;;;;;;;;;;;;;;5078124;28;19935;-69
2023/04/24 05:53:09;;;;;;;;;;;;;;;;;;5081643;28;19975;-69
2023/04/24 05:55:36;;;;;;;;;;;;;;;;;;5083944;28;19931;-69
2023/04/24 05:58:03;;;;;;;;;;;;;;;;;;5078422;28;19924;-68
2023/04/24 06:00:30;;;;;;;;;;;;;;;;;;5075667;28;20036;-69
2023/04/24 06:02:59;;;;;;;;;;;8.00;99.90;;;;;;5075324;28;19929;-67
2023/04/24 06:05:25;;;;;;;;;;;8.30;99.90;;;;;;5074992;28;19925;-68
2023/04/24 06:07:52;;;;;;;;;;;8.30;99.90;;;;;;5078995;28;20272;-69
2023/04/24 06:10:19;;;;;;;;;;;8.30;99.90;;;;;;5083660;28;19998;-69
2023/04/24 06:12:46;;;;;;;;;;;8.40;99.90;;;;;;5074097;28;20030;-69
2023/04/24 06:15:12;;;;;;;;;;;7.70;99.90;;;;;;5076033;28;19981;-71
2023/04/24 06:17:39;;;;;;;;;;;8.40;99.90;;;;;;5083852;28;19924;-70
2023/04/24 06:20:08;;;;;;;;;;;8.40;99.90;;;;;;5082040;28;19932;-69
2023/04/24 06:22:35;;;;;;;;;;;8.40;99.90;;;;;;5085589;28;20464;-70
2023/04/24 06:25:02;;;;;;;;;;;8.40;99.90;;;;;;5075463;28;19933;-70
2023/04/24 06:27:29;;;;;;;;;;;8.70;99.90;;;;;;5074856;28;19978;-69
2023/04/24 06:29:56;;;;;;;;;;;8.80;99.90;;;;;;5074614;28;20419;-69
2023/04/24 06:32:23;;;;;;;;;;;8.60;99.90;;;;;;5077409;28;19924;-69
2023/04/24 06:34:50;;;;;;;;;;;8.30;99.90;;;;;;5079325;28;20384;-69
2023/04/24 06:37:18;;;;;;;;;;;8.40;99.90;;;;;;5087666;28;20351;-68
2023/04/24 06:39:44;;;;;;;;;;;8.40;99.90;;;;;;5075447;28;19924;-68
2023/04/24 06:42:11;;;;;;;;;;;8.40;99.90;;;;;;5079628;28;19963;-68
2023/04/24 06:44:40;;;;;;;;;;;8.40;99.90;;;;;;5077877;28;19924;-69
2023/04/24 06:47:07;;;;;;;;;;;8.40;99.90;;;;;;5072892;28;19946;-69
2023/04/24 06:49:34;;;;;;;;;;;8.50;99.90;;;;;;5074404;28;19924;-69
2023/04/24 06:52:01;;;;;;;;;;;8.50;99.90;;;;;;5078394;28;19924;-69
2023/04/24 06:54:29;;;;;;;;;;;8.50;99.90;;;;;;5074075;28;20278;-68
2023/04/24 06:56:57;;;;;;;;;;;8.50;99.90;;;;;;5085787;28;19924;-69
2023/04/24 06:59:24;;;;;;;;;;;8.50;99.90;;;;;;5075692;28;19982;-70
2023/04/24 07:01:51;;;;;;;;;;;8.50;99.90;;;;;;5075990;28;19925;-69
2023/04/24 07:04:18;;;;;;;;;;;8.60;99.90;;;;;;5073293;28;20015;-68
2023/04/24 07:06:45;;;;;;;;;;;8.70;99.90;;;;;;5082569;28;20377;-69
2023/04/24 07:09:13;;;;;;;;;;;8.70;99.90;;;;;;5072221;28;19924;-69
2023/04/24 07:11:41;;;;;;;;;;;8.70;99.90;;;;;;5081314;28;19924;-69
2023/04/24 07:14:08;;;;;;;;;;;8.70;99.90;;;;;;5075891;28;19924;-73
2023/04/24 07:16:35;;;;;;;;;;;8.80;99.90;;;;;;5078780;28;19928;-72
2023/04/24 07:19:02;;;;;;;;;;;8.80;99.90;;;;;;5077704;28;20022;-69
2023/04/24 07:21:30;;;;;;;;;;;8.90;99.90;;;;;;5077585;28;19925;-69
2023/04/24 07:23:57;;;;;;;;;;;9.10;99.90;;;;;;5072389;28;19924;-69
2023/04/24 07:26:24;;;;;;;;;;;9.20;99.90;;;;;;5072736;28;19928;-69
2023/04/24 07:28:52;;;;;;;;;;;9.10;99.90;;;;;;5073964;28;19932;-68
2023/04/24 07:31:19;;;;;;;;;;;9.20;99.90;;;;;;5074283;28;19968;-69
2023/04/24 07:33:46;;;;;;;;;;;9.30;99.90;;;;;;5085794;28;19931;-69
2023/04/24 07:36:16;;;;;;;;;;;9.40;99.90;;;;;;5077145;28;20293;-69
2023/04/24 07:38:43;;;;;;;;;;;9.60;99.90;;;;;;5069714;28;19939;-69
2023/04/24 07:41:10;;;;;;;;;;;9.80;99.90;;;;;;5072080;28;19925;-69
2023/04/24 07:43:37;;;;;;;;;;;10.20;99.90;;;;;;5081336;28;19932;-70
2023/04/24 07:46:05;;;;;;;;;;;10.40;99.90;;;;;;5078152;28;19924;-69
2023/04/24 07:48:32;;;;;;;;;;;10.30;99.90;;;;;;5079641;28;19980;-69
2023/04/24 07:50:59;;;;;;;;;;;10.10;99.90;;;;;;5076997;28;19976;-69
2023/04/24 07:53:25;;;;;;;;;;;9.90;99.90;;;;;;5079164;28;20017;-69
2023/04/24 07:55:52;;;;;;;;;;;9.90;99.90;;;;;;5071494;28;19979;-69
2023/04/24 07:58:19;;;;;;;;;;;10.10;99.90;;;;;;5074814;28;19924;-68
2023/04/24 08:00:47;;;;;;;;;;;9.90;99.90;;;;;;5073677;28;19924;-69
2023/04/24 08:03:14;;;;;;;;;;;;;;;;;;5081906;28;20433;-69
2023/04/24 08:05:41;;;;;;;;;;;;;;;;;;5078890;28;19932;-69
2023/04/24 08:08:08;;;;;;;;;;;;;;;;;;5070561;28;19931;-69
2023/04/24 08:10:35;;;;;;;;;;;;;;;;;;5076976;28;19932;-69
2023/04/24 08:13:02;;;;;;;;;;;;;;;;;;5075713;28;20389;-69
2023/04/24 08:15:29;;;;;;;;;;;;;;;;;;5081869;28;19931;-69
2023/04/24 08:17:56;;;;;;;;;;;;;;;;;;5080509;28;19931;-69
2023/04/24 08:20:23;;;;;;;;;;;;;;;;;;5076222;28;20449;-69
2023/04/24 08:22:50;;;;;;;;;;;;;;;;;;5075007;28;19924;-70
2023/04/24 08:25:18;;;;;;;;;;;;;;;;;;5073591;28;19948;-69
2023/04/24 08:27:45;;;;;;;;;;;;;;;;;;5078543;28;20489;-69
2023/04/24 08:30:13;;;;;;;;;;;;;;;;;;5081799;28;19984;-69
2023/04/24 08:32:40;;;;;;;;;;;;;;;;;;5079685;28;19928;-66
2023/04/24 08:35:08;;;;;;;;;;;;;;;;;;5083316;28;19977;-67
2023/04/24 08:37:35;;;;;;;;;;;;;;;;;;5088489;28;19931;-66
2023/04/24 08:40:02;;;;;;;;;;;;;;;;;;5084898;28;19969;-66
2023/04/24 08:42:31;;;;;;;;;;;;;;;;;;5078712;28;19994;-67
2023/04/24 08:44:58;;;;;;;;;;;;;;;;;;5084876;28;19924;-67
2023/04/24 08:47:26;;;;;;;;;;;;;;;;;;5081085;28;19994;-67
2023/04/24 08:49:53;;;;;;;;;;;;;;;;;;5087115;28;20050;-67
2023/04/24 08:52:21;;;;;;;;;;;;;;;;;;5084506;28;20383;-67
2023/04/24 08:54:48;;;;;;;;;;;;;;;;;;5078926;28;20018;-67
2023/04/24 08:57:15;;;;;;;;;;;;;;;;;;5086578;28;19979;-66
2023/04/24 08:59:42;;;;;;;;;;;;;;;;;;5075440;28;19925;-70
2023/04/24 09:02:09;;;;;;;;;;;;;;;;;;5088887;28;20380;-70
2023/04/24 09:04:36;;;;;;;;;;;;;;;;;;5081239;28;20010;-70
2023/04/24 09:07:03;;;;;;;;;;;;;;;;;;5080581;28;19928;-70
2023/04/24 09:09:30;;;;;;;;;;;;;;;;;;5080619;28;19987;-70
2023/04/24 09:11:57;;;;;;;;;;;;;;;;;;5085162;28;19978;-71
2023/04/24 09:14:24;;;;;;;;;;;;;;;;;;5080983;28;20670;-71
2023/04/24 09:16:51;;;;;;;;;;;;;;;;;;5085540;28;19986;-70
2023/04/24 09:19:18;;;;;;;;;;;;;;;;;;5079156;28;20680;-71
2023/04/24 09:21:45;;;;;;;;;;;;;;;;;;5078438;28;19932;-70
2023/04/24 09:24:12;;;;;;;;;;;;;;;;;;5082169;28;19924;-71
2023/04/24 09:26:39;;;;;;;;;;;;;;;;;;5081001;28;19924;-71
2023/04/24 09:29:06;;;;;;;;;;;;;;;;;;5085300;28;19993;-70
2023/04/24 09:31:33;;;;;;;;;;;;;;;;;;5080527;28;19931;-70
2023/04/24 09:34:00;;;;;;;;;;;;;;;;;;5078852;28;20398;-70
2023/04/24 09:36:27;;;;;;;;;;;;;;;;;;5086363;28;20244;-70
2023/04/24 09:38:54;;;;;;;;;;;;;;;;;;5090312;28;19969;-68
2023/04/24 09:41:21;;;;;;;;;;;;;;;;;;5093028;28;19977;-70
2023/04/24 09:43:48;;;;;;;;;;;;;;;;;;5082959;28;20013;-69
2023/04/24 09:46:15;;;;;;;;;;;;;;;;;;5077664;28;20465;-68
2023/04/24 09:48:42;;;;;;;;;;;;;;;;;;5089635;28;19977;-68
2023/04/24 09:51:11;;;;;;;;;;;;;;;;;;5087769;28;19929;-69
2023/04/24 09:53:39;;;;;;;;;;;;;;;;;;5089800;28;20359;-69
2023/04/24 09:56:06;;;;;;;;;;;;;;;;;;5081299;28;19927;-69
2023/04/24 09:58:33;;;;;;;;;;;;;;;;;;5085158;28;19955;-70
2023/04/24 10:01:00;;;;;;;;;;;;;;;;;;5077081;28;20275;-70
2023/04/24 10:03:27;;;;;;;;;;;;;;;;;;5085718;28;19928;-70
2023/04/24 10:05:55;;;;;;;;;;;;;;;;;;5087566;28;20301;-70
2023/04/24 10:08:22;;;;;;;;;;;;;;;;;;5088448;28;19975;-69
2023/04/24 10:10:49;;;;;;;;;;;;;;;;;;5084346;28;19924;-70
2023/04/24 10:13:16;;;;;;;;;;;;;;;;;;5080600;28;19997;-69
2023/04/24 10:15:43;;;;;;;;;;;;;;;;;;5078119;28;19925;-70
2023/04/24 10:18:10;;;;;;;;;;;;;;;;;;5076487;28;20335;-72
2023/04/24 10:20:37;;;;;;;;;;;;;;;;;;5079452;28;20021;-71
2023/04/24 10:23:04;;;;;;;;;;;;;;;;;;5074938;28;19981;-71
2023/04/24 10:25:31;;;;;;;;;;;;;;;;;;5084052;28;19985;-71
2023/04/24 10:27:59;;;;;;;;;;;;;;;;;;5073296;28;19950;-70
2023/04/24 10:30:26;;;;;;;;;;;;;;;;;;5078418;28;19932;-71
2023/04/24 10:32:53;;;;;;;;;;;;;;;;;;5078438;28;19971;-69
2023/04/24 10:35:22;;;;;;;;;;;;;;;;;;5079569;28;19928;-70
2023/04/24 10:37:49;;;;;;;;;;;;;;;;;;5095946;28;20376;-72
2023/04/24 10:40:16;;;;;;;;;;;;;;;;;;5076948;28;19927;-70
2023/04/24 10:42:43;;;;;;;;;;;;;;;;;;5086679;28;19924;-70
2023/04/24 10:45:10;;;;;;;;;;;;;;;;;;5080508;28;19928;-71
2023/04/24 10:47:37;;;;;;;;;;;;;;;;;;5087044;28;20339;-70
2023/04/24 10:50:05;;;;;;;;;;;;;;;;;;5081894;28;19932;-71
2023/04/24 10:52:32;;;;;;;;;;;;;;;;;;5077108;28;20360;-72
2023/04/24 10:54:59;;;;;;;;;;;;;;;;;;5076779;28;19964;-72
2023/04/24 10:57:28;;;;;;;;;;;;;;;;;;5082291;28;19928;-71
2023/04/24 10:59:55;;;;;;;;;;;;;;;;;;5075722;28;19974;-71
2023/04/24 11:02:22;;;;;;;;;;;;;;;;;;5077133;28;20027;-71
2023/04/24 11:04:50;;;;;;;;;;;;;;;;;;5074243;28;20433;-71
2023/04/24 11:07:17;;;;;;;;;;;;;;;;;;5077647;28;19924;-70
2023/04/24 11:09:44;;;;;;;;;;;;;;;;;;5077168;28;19954;-70
2023/04/24 11:12:12;;;;;;;;;;;;;;;;;;5078401;28;20019;-70
2023/04/24 11:14:39;;;;;;;;;;;;;;;;;;5076971;28;21767;-71
2023/04/24 11:17:07;;;;;;;;;;;;;;;;;;5078607;28;20022;-71
2023/04/24 11:19:34;;;;;;;;;;;;;;;;;;5087211;28;20011;-70
2023/04/24 11:22:01;;;;;;;;;;;;;;;;;;5089126;28;20269;-70
2023/04/24 11:24:28;;;;;;;;;;;;;;;;;;5089405;28;19981;-71
2023/04/24 11:26:56;;;;;;;;;;;;;;;;;;5078700;28;19924;-70
2023/04/24 11:29:23;;;;;;;;;;;;;;;;;;5076976;28;20020;-71
2023/04/24 11:31:51;;;;;;;;;;;;;;;;;;5074258;28;20352;-70
2023/04/24 11:34:18;;;;;;;;;;;;;;;;;;5081098;28;20426;-69
2023/04/24 11:36:48;;;;;;;;;;;;;;;;;;5082520;28;19924;-70
2023/04/24 11:39:15;;;;;;;;;;;;;;;;;;5078192;28;19924;-71
2023/04/24 11:41:42;;;;;;;;;;;;;;;;;;5076984;28;19928;-70
2023/04/24 11:44:09;;;;;;;;;;;;;;;;;;5077654;28;19993;-71
2023/04/24 11:46:37;;;;;;;;;;;;;;;;;;5084363;28;19947;-72
2023/04/24 11:49:05;;;;;;;;;;;;;;;;;;5074082;28;19939;-71
2023/04/24 11:51:32;;;;;;;;;;;;;;;;;;5084798;28;19959;-70
2023/04/24 11:53:59;;;;;;;;;;;;;;;;;;5079836;28;19997;-70
2023/04/24 11:56:26;;;;;;;;;;;;;;;;;;5082687;28;20001;-69
2023/04/24 11:58:53;;;;;;;;;;;;;;;;;;5076519;28;19924;-70
2023/04/24 12:01:20;;;;;;;;;;;;;;;;;;5078185;28;19931;-71
2023/04/24 12:03:47;;;;;;;;;;;;;;;;;;5084572;28;19932;-71
2023/04/24 12:06:14;;;;;;;;;;;;;;;;;;5082091;28;19931;-72
2023/04/24 12:08:41;;;;;;;;;;;;;;;;;;5077134;28;20549;-72
2023/04/24 12:11:08;;;;;;;;;;;;;;;;;;5081111;28;19978;-72
2023/04/24 12:13:35;;;;;;;;;;;;;;;;;;5082727;28;20645;-71
2023/04/24 12:16:02;;;;;;;;;;;;;;;;;;5084420;28;20011;-70
2023/04/24 12:18:29;;;;;;;;;;;;;;;;;;5078563;28;19924;-72
2023/04/24 12:20:56;;;;;;;;;;;;;;;;;;5081355;28;20065;-69
2023/04/24 12:23:23;;;;;;;;;;;;;;;;;;5074990;28;20006;-70
2023/04/24 12:25:50;;;;;;;;;;;;;;;;;;5077910;28;19931;-70
2023/04/24 12:28:17;;;;;;;;;;;;;;;;;;5074870;28;19978;-70
2023/04/24 12:30:45;;;;;;;;;;;;;;;;;;5072218;28;19925;-70
2023/04/24 12:33:12;;;;;;;;;;;;;;;;;;5081438;28;19925;-70
2023/04/24 12:35:39;;;;;;;;;;;;;;;;;;5078570;28;19931;-70
2023/04/24 12:38:06;;;;;;;;;;;;;;;;;;5076338;28;19924;-69
2023/04/24 12:40:33;;;;;;;;;;;;;;;;;;5078291;28;20449;-70
2023/04/24 12:43:00;;;;;;;;;;;;;;;;;;5082435;28;19990;-69
2023/04/24 12:45:27;;;;;;;;;;;;;;;;;;5075949;28;19971;-70
2023/04/24 12:47:54;;;;;;;;;;;;;;;;;;5079518;28;20024;-70
2023/04/24 12:50:21;;;;;;;;;;;;;;;;;;5075681;28;19974;-71
2023/04/24 12:52:48;;;;;;;;;;;;;;;;;;5081296;28;19966;-70
2023/04/24 12:55:15;;;;;;;;;;;;;;;;;;5078130;28;19932;-70
2023/04/24 12:57:42;;;;;;;;;;;;;;;;;;5081117;28;20372;-71
2023/04/24 13:00:09;;;;;;;;;;;;;;;;;;5077488;28;20335;-71
2023/04/24 13:02:36;;;;;;;;;;;;;;;;;;5075075;28;20296;-71
2023/04/24 13:05:03;;;;;;;;;;;;;;;;;;5071013;28;19963;-70
2023/04/24 13:07:30;;;;;;;;;;;;;;;;;;5079640;28;20394;-70
2023/04/24 13:09:58;;;;;;;;;;;;;;;;;;5080370;28;19969;-71
2023/04/24 13:12:25;;;;;;;;;;;;;;;;;;5073232;28;19950;-70
2023/04/24 13:14:52;;;;;;;;;;;;;;;;;;5082188;28;19951;-71
2023/04/24 13:17:19;;;;;;;;;;;;;;;;;;5083358;28;19932;-71
2023/04/24 13:19:46;;;;;;;;;;;;;;;;;;5083825;28;19925;-72
2023/04/24 13:22:13;;;;;;;;;;;;;;;;;;5078585;28;19932;-71
2023/04/24 13:24:41;;;;;;;;;;;;;;;;;;5085276;28;19924;-71
2023/04/24 13:27:08;;;;;;;;;;;;;;;;;;5079345;28;19954;-71
2023/04/24 13:29:35;;;;;;;;;;;;;;;;;;5082129;28;19928;-72
2023/04/24 13:32:02;;;;;;;;;;;;;;;;;;5083586;28;19955;-72
2023/04/24 13:34:29;;;;;;;;;;;;;;;;;;5076415;28;19925;-72
2023/04/24 13:36:56;;;;;;;;;;;;;;;;;;5091864;28;19928;-70
2023/04/24 13:39:23;;;;;;;;;;;;;;;;;;5090752;28;19977;-71
2023/04/24 13:41:50;;;;;;;;;;;;;;;;;;5093332;28;20256;-72
2023/04/24 13:44:17;;;;;;;;;;;;;;;;;;5075812;28;19928;-72
2023/04/24 13:46:45;;;;;;;;;;;;;;;;;;5079171;28;19928;-72
2023/04/24 13:49:12;;;;;;;;;;;;;;;;;;5076199;28;20285;-73
2023/04/24 13:51:39;;;;;;;;;;;;;;;;;;5075558;28;19928;-71
2023/04/24 13:54:06;;;;;;;;;;;;;;;;;;5078089;28;20407;-70
2023/04/24 13:56:33;;;;;;;;;;;;;;;;;;5081817;28;19924;-74
2023/04/24 13:59:00;;;;;;;;;;;;;;;;;;5090114;28;19924;-75
2023/04/24 14:01:27;;;;;;;;;;;;;;;;;;5086642;28;19983;-73
2023/04/24 14:03:55;;;;;;;;;;;;;;;;;;5089303;28;20343;-74
2023/04/24 14:06:22;;;;;;;;;;;;;;;;;;5073540;28;19928;-73
2023/04/24 14:08:50;;;;;;;;;;;;;;;;;;5088663;28;19930;-73
2023/04/24 14:11:17;;;;;;;;;;;;;;;;;;5085613;28;19928;-73
2023/04/24 14:13:44;;;;;;;;;;;;;;;;;;5087687;28;19924;-75
2023/04/24 14:16:11;;;;;;;;;;;;;;;;;;5082016;28;19925;-74
2023/04/24 14:18:39;;;;;;;;;;;;;;;;;;5083493;28;19928;-75
2023/04/24 14:21:06;;;;;;;;;;;;;;;;;;5074438;28;19986;-75
2023/04/24 14:23:33;;;;;;;;;;;;;;;;;;5079910;28;19924;-75
2023/04/24 14:26:00;;;;;;;;;;;;;;;;;;5079894;28;19928;-77
2023/04/24 14:28:27;;;;;;;;;;;;;;;;;;5078680;28;19936;-72
2023/04/24 14:30:54;;;;;;;;;;;;;;;;;;5071209;28;19924;-74
2023/04/24 14:33:26;;;;;;;;;;;;;;;;;;5079768;28;19928;-74
2023/04/24 14:35:53;;;;;;;;;;;;;;;;;;5084280;28;19924;-74
2023/04/24 14:38:21;;;;;;;;;;;;;;;;;;5080150;28;19925;-74
2023/04/24 14:40:49;;;;;;;;;;;;;;;;;;5077364;28;19929;-78
2023/04/24 14:43:17;;;;;;;;;;;;;;;;;;5083117;28;20364;-74
2023/04/24 14:45:47;;;;;;;;;;;;;;;;;;5088723;28;19924;-74
2023/04/24 14:48:16;;;;;;;;;;;;;;;;;;5092266;28;20327;-73
2023/04/24 14:50:46;;;;;;;;;;;;;;;;;;5087613;28;21334;-73
2023/04/24 14:53:13;;;;;;;;;;;;;;;;;;5086778;28;20364;-74
2023/04/24 14:55:40;;;;;;;;;;;;;;;;;;5073917;28;20007;-73
2023/04/24 14:58:07;;;;;;;;;;;;;;;;;;5081672;28;20418;-75
2023/04/24 15:00:34;;;;;;;;;;;;;;;;;;5077089;28;19924;-73
2023/04/24 15:03:02;;;;;;;;;;;;;;;;;;5081593;28;19930;-71
2023/04/24 15:05:30;;;;;;;;;;;;;;;;;;5079634;28;19981;-73
2023/04/24 15:07:57;;;;;;;;;;;;;;;;;;5081157;28;20023;-74
2023/04/24 15:10:25;;;;;;;;;;;;;;;;;;5077123;28;20006;-73
2023/04/24 15:12:52;;;;;;;;;;;;;;;;;;5083494;28;19925;-74
2023/04/24 15:15:19;;;;;;;;;;;;;;;;;;5079247;28;19975;-73
2023/04/24 15:17:46;;;;;;;;;;;;;;;;;;5076754;28;20380;-71
2023/04/24 15:20:14;;;;;;;;;;;;;;;;;;5082564;28;20401;-73
2023/04/24 15:22:41;;;;;;;;;;;;;;;;;;5087619;28;19962;-73
2023/04/24 15:25:08;;;;;;;;;;;;;;;;;;5079712;28;19932;-73
2023/04/24 15:27:35;;;;;;;;;;;;;;;;;;5073706;28;19925;-73
2023/04/24 15:30:02;;;;;;;;;;;;;;;;;;5075369;28;19924;-72
2023/04/24 15:32:29;;;;;;;;;;;;;;;;;;5078332;28;19959;-73
2023/04/24 15:34:57;;;;;;;;;;;;;;;;;;5091707;28;19935;-73
2023/04/24 15:37:24;;;;;;;;;;;;;;;;;;5078829;28;19991;-73
2023/04/24 15:39:51;;;;;;;;;;;;;;;;;;5082671;28;19925;-72
2023/04/24 15:42:18;;;;;;;;;;;;;;;;;;5077020;28;19931;-74
2023/04/24 15:44:45;;;;;;;;;;;;;;;;;;5078718;28;19932;-73
2023/04/24 15:47:13;;;;;;;;;;;;;;;;;;5072030;28;19928;-73
2023/04/24 15:49:40;;;;;;;;;;;;;;;;;;5076625;28;19931;-73
2023/04/24 15:52:09;;;;;;;;;;;;;;;;;;5074295;28;20586;-73
2023/04/24 15:54:38;;;;;;;;;;;;;;;;;;5079805;28;19932;-73
2023/04/24 15:57:05;;;;;;;;;;;;;;;;;;5078175;28;19970;-73
2023/04/24 15:59:32;;;;;;;;;;;;;;;;;;5076788;28;20409;-73
2023/04/24 16:01:59;;;;;;;;;;;;;;;;;;5077031;28;20020;-73
2023/04/24 16:04:26;;;;;;;;;;;;;;;;;;5072882;28;20337;-73
2023/04/24 16:06:53;;;;;;;;;;;;;;;;;;5072368;28;19924;-72
2023/04/24 16:09:20;;;;;;;;;;;;;;;;;;5078974;28;19978;-73
2023/04/24 16:11:47;;;;;;;;;;;;;;;;;;5077894;28;19928;-72
2023/04/24 16:14:14;;;;;;;;;;;;;;;;;;5079434;28;19983;-71
2023/04/24 16:16:41;;;;;;;;;;;;;;;;;;5073549;28;20032;-71
2023/04/24 16:19:08;;;;;;;;;;;;;;;;;;5081205;28;19971;-72
2023/04/24 16:21:35;;;;;;;;;;;;;;;;;;5078741;28;19928;-70
2023/04/24 16:24:02;;;;;;;;;;;;;;;;;;5075521;28;19955;-71
2023/04/24 16:26:29;;;;;;;;;;;;;;;;;;5074478;28;19931;-70